Terminal Aerodrome Forecast
Issued by NWS

Home | Current Version | Previous Version | Text Only | Print | Product List | Glossary On
Versions: 1 2 3 4 5 6 7 8 9 10 11 12 13 14 15 16 17 18 19 20 21 22 23 24 25 26 27 28 29 30 31 32 33 34 35 36 37 38 39 40 41 42 43 44 45 46 47
000
FTUS45 KPSR 311700
TAFIWA
TAF
KIWA 311722Z 3118/0118 VRB03KT P6SM -SHRA BKN030 OVC070
      TEMPO 3118/3122 6SM -SHRA OVC030
     FM312300 29005KT P6SM VCSH SCT030 BKN050 OVC070
     FM010400 VRB03KT P6SM BKN050
     FM010900 12004KT 5SM BR SCT050
     FM011600 VRB03KT P6SM FEW050=

USA.gov is the U.S. government's official web portal to all federal, state and local government web resources and services.